Syntel Inc (SYNT) Latest Bloomsberg Price


Mffais Ranking #164 Overall / #4 Industry
Industry: It Services

Number of Companies: 138 (Ranking #1261 Overall/#15 Industry)
Inflow: $ 108,039 (K) (Ranking #920 Overall/#11 Industry)
Outflow: $ -46,110 (K)
Mffais Flow: $ 61,929 (K) (Ranking #164 Overall/#4 Industry)


Receive a FREE weekly executive review of stocks moving into the top 10, taking the top industy spot or moving up within their industry. Sent directly to your Inbox every Saturday. Sign up today and get last week's review immediately sent to you.

We value and respect your privacy. Please read our Terms and Conditions which states our firm commitment to your privacy. Your email address will not be shared with a third party, nor will it be sold or used for purposes other than subscription for the weekly review.

Owner CPOR Shares Action Qty Chg Invested (K) Total Current Value (K)
Alpine Woods Capital Investors Llc 2016-09-30 660,000 New Holding 660,000 $ 29,752 $ 29,752
Kayne Anderson Rudnick Investment Management Llc 2016-09-30 1,471,655 Added More 425,714 $ 19,191 $ 66,342
Freestone Capital Holdings Llc 2016-09-30 381,019 New Holding 381,019 $ 17,176 $ 17,176
Ahl Partners Llp 2016-09-30 184,072 Added More 116,494 $ 5,251 $ 8,297
Candriam Luxembourg S C A 2016-09-30 96,800 New Holding 96,800 $ 4,363 $ 4,363
Kcg Holdings Inc 2016-09-30 62,496 New Holding 62,496 $ 2,817 $ 2,817
Cutler Group Lp 2016-09-30 66,900 Added More 62,400 $ 2,812 $ 3,015
First New York Securities Llc Ny 2016-09-30 61,259 New Holding 61,259 $ 2,761 $ 2,761
Brandywine Global Investment Management Llc 2016-09-30 335,581 Added More 48,363 $ 2,180 $ 15,127
Nisa Investment Advisors Llc 2016-09-30 46,550 New Holding 46,550 $ 2,098 $ 2,098
Fort L P 2016-09-30 89,627 Added More 44,407 $ 2,001 $ 4,040
Omers Administration Corp 2016-09-30 42,200 New Holding 42,200 $ 1,902 $ 1,902
Martingale Asset Management L P 2016-09-30 35,803 New Holding 35,803 $ 1,613 $ 1,613
Dimensional Fund Advisors Lp 2016-09-30 485,122 Added More 32,887 $ 1,482 $ 21,869
Capital Fund Management S A 2016-09-30 27,200 New Holding 27,200 $ 1,226 $ 1,226
Clinton Group Inc 2016-09-30 31,898 Added More 25,925 $ 1,168 $ 1,437
State Treasurer State Of Michigan 2016-09-30 24,200 New Holding 24,200 $ 1,090 $ 1,090
Forward Management Llc 2016-09-30 21,000 New Holding 21,000 $ 946 $ 946
Bessemer Group Inc 2016-09-30 20,734 Added More 20,326 $ 916 $ 934
Peak6 Investments L P 2016-09-30 20,127 New Holding 20,127 $ 907 $ 907
Fny Managed Accounts Llc 2016-09-30 13,500 New Holding 13,500 $ 608 $ 608
Engineers Gate Manager Lp 2016-09-30 13,266 New Holding 13,266 $ 598 $ 598
Tudor Investment Corp Et Al 2016-09-30 10,900 New Holding 10,900 $ 491 $ 491
Deere Co 2016-09-30 9,759 New Holding 9,759 $ 439 $ 439
Tributary Capital Management Llc 2016-09-30 142,058 Added More 9,679 $ 436 $ 6,403
Zebra Capital Management Llc 2016-09-30 72,851 Added More 9,507 $ 428 $ 3,284
Jane Street Group Llc 2016-09-30 7,657 New Holding 7,657 $ 345 $ 345
Sg Americas Securities Llc 2016-09-30 6,716 New Holding 6,716 $ 302 $ 302
Alambic Investment Management L P 2016-09-30 26,300 Added More 6,380 $ 287 $ 1,185
Global X Management Co Llc 2016-09-30 6,345 New Holding 6,345 $ 286 $ 286
Bryn Mawr Trust Co 2016-09-30 105,216 Added More 6,211 $ 279 $ 4,743
Fdx Advisors Inc 2016-09-30 4,844 New Holding 4,844 $ 218 $ 218
Pacad Investment Ltd 2016-09-30 9,400 Added More 4,200 $ 189 $ 423
Moody Aldrich Partners Llc 2016-09-30 29,620 Added More 3,050 $ 137 $ 1,335
Stifel Financial Corp 2016-09-30 25,942 Added More 2,592 $ 116 $ 1,169
Bokf Na 2016-09-30 10,494 Added More 2,563 $ 115 $ 473
Envestnet Asset Management Inc 2016-09-30 11,729 Added More 2,374 $ 107 $ 528
New York State Common Retirement Fund 2016-09-30 34,200 Added More 2,300 $ 103 $ 1,541
Amp Capital Investors Ltd 2016-09-30 34,608 Added More 2,012 $ 90 $ 1,560
Bbva Compass Bancshares Inc 2016-09-30 29,503 Added More 1,759 $ 79 $ 1,329
Lucus Advisors Llc 2016-09-30 9,447 Added More 1,612 $ 72 $ 425
First National Bank Of Omaha 2016-09-30 13,530 Added More 1,405 $ 63 $ 609
Guggenheim Capital Llc 2016-09-30 21,375 Added More 1,251 $ 56 $ 963
Raymond James Associates 2016-09-30 9,179 Added More 1,224 $ 55 $ 413
Creative Planning 2016-09-30 1,290 Added More 1,200 $ 54 $ 58
Blackrock Investment Management Llc 2016-09-30 122,374 Added More 1,081 $ 48 $ 5,516
Us Bancorp De 2016-09-30 2,760 Added More 1,038 $ 46 $ 124
Ghp Investment Advisors Inc 2016-09-30 39,639 Added More 725 $ 32 $ 1,786
Rhumbline Advisers 2016-09-30 44,506 Added More 717 $ 32 $ 2,006
California State Teachers Retirement System 2016-09-30 68,421 Added More 700 $ 31 $ 3,084
Bb T Securities Llc 2016-09-30 11,954 Added More 686 $ 30 $ 538
Alps Advisors Inc 2016-09-30 9,509 Added More 613 $ 27 $ 428
Advisor Group Inc 2016-09-30 1,350 Added More 528 $ 23 $ 60
Eqis Capital Management Inc 2016-09-30 6,926 Added More 520 $ 23 $ 312
Jensen Investment Management Inc 2016-09-30 10,120 Added More 460 $ 20 $ 456
Pacer Advisors Inc 2016-09-30 3,428 Added More 439 $ 19 $ 154
Next Financial Group Inc 2016-09-30 380 New Holding 380 $ 17 $ 17
Oakworth Capital Inc 2016-09-30 256 New Holding 256 $ 11 $ 11
Aperio Group Llc 2016-09-30 6,242 Added More 229 $ 10 $ 281
Blackrock Inc 2016-09-30 3,099 Added More 177 $ 7 $ 139
Zurcher Kantonalbank Zurich Cantonalbank 2016-09-30 811 Added More 132 $ 5 $ 36
Teachers Advisors Inc 2016-09-30 59,432 Added More 127 $ 5 $ 2,679
Thomas White International Ltd 2016-09-30 110 New Holding 110 $ 4 $ 4
New York State Teachers Retirement System 2016-09-30 2,800 Added More 100 $ 4 $ 126
Northwestern Mutual Wealth Management Co 2016-09-30 60 New Holding 60 $ 2 $ 2
Arrowpoint Asset Management Llc 2016-09-30 31 New Holding 31 $ 1 $ 1
American International Group Inc 2016-09-30 18,620 Added More 28 $ 1 $ 839
Horizon Kinetics Llc 2016-09-30 9,503 Added More 3 $ 0 $ 428
First Republic Investment Management Inc 2016-09-30 157,264 Added More 2 $ 0 $ 7,089
Midas Management Corp 2016-09-30 13,754 No Change 0 $ 0 $ 620
Wesbanco Bank Inc 2016-09-30 30,000 No Change 0 $ 0 $ 1,352
Eulav Asset Management 2016-09-30 22,700 No Change 0 $ 0 $ 1,023
Denali Advisors Llc 2016-09-30 68 No Change 0 $ 0 $ 3
Westport Resources Management Inc 2016-09-30 900 No Change 0 $ 0 $ 40
Advisory Services Network Llc 2016-09-30 1,000 No Change 0 $ 0 $ 45
Adams Diversified Equity Fund Inc 2016-09-30 8,200 No Change 0 $ 0 $ 369
Hartline Investment Corp 2016-09-30 20,485 No Change 0 $ 0 $ 923
Pax World Management Llc 2016-09-30 433,668 No Change 0 $ 0 $ 19,549
Third Avenue Management Llc 2016-09-30 117,688 No Change 0 $ 0 $ 5,305
Barbara Oil Co 2016-09-30 12,000 No Change 0 $ 0 $ 540
Nationwide Fund Advisors 2016-09-30 21,327 No Change 0 $ 0 $ 961
American National Insurance Co Tx 2016-09-30 11,290 No Change 0 $ 0 $ 508
Cable Hill Partners Llc 2016-09-30 260 No Change 0 $ 0 $ 11
Wfg Advisors Lp 2016-09-30 128 No Change 0 $ 0 $ 5
Rocky Mountain Advisers Llc 2016-09-30 52 No Change 0 $ 0 $ 2
Ladenburg Thalmann Financial Services Inc 2016-09-30 125 Sold Some -2 $ -0 $ 5
Ftb Advisors Inc 2016-09-30 429 Sold Some -32 $ -1 $ 19
Us Financial Advisors Llc 2016-06-30 0 Sold All -46 $ -2 $ 0
Washington Trust Bank 2016-09-30 0 Sold All -47 $ -2 $ 0
Invictus Rg 2016-09-30 2,781 Sold Some -50 $ -2 $ 125
Hsbc Holdings Plc 2016-09-30 11,592 Sold Some -149 $ -6 $ 522
Legal General Group Plc 2016-09-30 8,152 Sold Some -169 $ -7 $ 367
Bronfman E L Rothschild L P 2016-09-30 150 Sold Some -170 $ -7 $ 6
Independent Portfolio Consultants Inc 2016-09-30 11,880 Sold Some -180 $ -8 $ 535
Sei Investments Co 2016-09-30 10 Sold Some -223 $ -10 $ 0
Johnson Financial Group Inc 2016-09-30 350 Sold Some -400 $ -18 $ 15
Pnc Financial Services Group Inc 2016-09-30 36,770 Sold Some -442 $ -19 $ 1,657
Ramsey Quantitative Systems 2016-09-30 16,519 Sold Some -574 $ -25 $ 744
Fuller Thaler Asset Management Inc 2016-09-30 0 Sold All -700 $ -31 $ 0
Essex Investment Management Co Llc 2016-09-30 6,785 Sold Some -838 $ -37 $ 305
Springbok Capital Management Llc 2016-09-30 900 Sold Some -1,600 $ -72 $ 40
Swiss National Bank 2016-09-30 52,400 Sold Some -1,700 $ -76 $ 2,362
Blair William Co Il 2016-09-30 21,423 Sold Some -1,722 $ -77 $ 965
Northern Trust Corp 2016-09-30 455,203 Sold Some -2,413 $ -108 $ 20,520
Leuthold Group Llc 2016-09-30 16,428 Sold Some -3,258 $ -146 $ 740
Callahan Advisors Llc 2016-09-30 8,950 Sold Some -3,370 $ -151 $ 403
Btim Corp 2016-09-30 788,732 Sold Some -3,937 $ -177 $ 35,556
1st Global Advisors Inc 2016-09-30 0 Sold All -4,571 $ -206 $ 0
Axa 2016-09-30 7,000 Sold Some -4,600 $ -207 $ 315
Teacher Retirement System Of Texas 2016-09-30 0 Sold All -4,684 $ -211 $ 0
Cambridge Investment Research Advisors Inc 2016-09-30 0 Sold All -4,842 $ -218 $ 0
Rbf Capital Llc 2016-09-30 0 Sold All -5,400 $ -243 $ 0
M T Bank Corp 2016-09-30 12,144 Sold Some -5,987 $ -269 $ 547
Strs Ohio 2016-09-30 0 Sold All -6,000 $ -270 $ 0
Psagot Investment House Ltd 2016-09-30 0 Sold All -6,200 $ -279 $ 0
Cubist Systematic Strategies Llc 2016-09-30 0 Sold All -6,240 $ -281 $ 0
Rk Asset Management Llc 2016-09-30 181,230 Sold Some -6,352 $ -286 $ 8,169
Bb T Corp 2016-09-30 0 Sold All -6,476 $ -291 $ 0
Carnegie Capital Asset Management Llc 2016-09-30 0 Sold All -7,130 $ -321 $ 0
Tiverton Asset Management Llc 2016-09-30 119,891 Sold Some -7,674 $ -345 $ 5,404
Soros Fund Management Llc 2016-09-30 0 Sold All -8,100 $ -365 $ 0
Parametric Portfolio Associates Llc 2016-09-30 17,334 Sold Some -8,423 $ -379 $ 781
Palo Capital Inc 2016-09-30 0 Sold All -9,318 $ -420 $ 0
Cim Llc 2016-09-30 0 Sold All -10,947 $ -493 $ 0
Jacobs Levy Equity Management Inc 2016-09-30 17,445 Sold Some -13,973 $ -629 $ 786
Pekin Singer Strauss Asset Management Il 2016-09-30 227,616 Sold Some -13,993 $ -630 $ 10,260
Cantab Capital Partners Llp 2016-09-30 0 Sold All -14,990 $ -675 $ 0
Hays Advisory Llc 2016-09-30 151,486 Sold Some -16,166 $ -728 $ 6,828
Bluecrest Capital Management Ltd 2016-09-30 0 Sold All -18,753 $ -845 $ 0
Hutchin Hill Capital Lp 2016-09-30 0 Sold All -25,500 $ -1,149 $ 0
Pdt Partners Llc 2016-09-30 0 Sold All -26,766 $ -1,206 $ 0
Usa Financial Portformulas Corp 2016-09-30 0 Sold All -27,520 $ -1,240 $ 0
Boston Family Office Llc 2016-09-30 38,091 Sold Some -31,100 $ -1,401 $ 1,717
Emerald Acquisition Ltd 2016-09-30 30,268 Sold Some -38,298 $ -1,726 $ 1,364
Fiera Capital Corp 2016-09-30 0 Sold All -74,786 $ -3,371 $ 0
Norris Perne French Llp Mi 2016-09-30 0 Sold All -110,205 $ -4,968 $ 0
Sensato Investors Llc 2016-09-30 196,793 Sold Some -198,915 $ -8,967 $ 8,871
Snyder Capital Management L P 2016-09-30 266,007 Sold Some -276,920 $ -12,483 $ 11,991